createdAt,value
2019-04-23T00:02:18.598Z,3.50
2019-04-23T00:04:47.939Z,5.42
2019-04-23T00:10:01.241Z,2.15
2019-04-23T00:12:30.329Z,3.58
2019-04-23T00:17:32.967Z,4.15
2019-04-23T00:20:00.746Z,2.20
2019-04-23T00:22:30.021Z,2.47
2019-04-23T00:25:41.608Z,3.85
2019-04-23T00:27:35.304Z,5.97
2019-04-23T00:30:18.701Z,3.50
2019-04-23T00:32:36.329Z,4.95
2019-04-23T00:40:03.253Z,6.83
2019-04-23T00:42:38.553Z,4.15
2019-04-23T00:45:01.730Z,2.87
2019-04-23T00:52:33.561Z,4.58
2019-04-23T00:55:11.019Z,3.80
2019-04-23T00:57:35.562Z,8.78
2019-04-23T01:00:22.097Z,4.17
2019-04-23T01:02:37.052Z,3.75
2019-04-23T01:05:11.831Z,4.15
2019-04-23T01:10:14.623Z,5.80
2019-04-23T01:12:51.205Z,3.22
2019-04-23T01:15:24.249Z,5.20
2019-04-23T01:17:49.142Z,4.08
2019-04-23T01:20:22.593Z,5.08
2019-04-23T01:22:40.110Z,5.40
2019-04-23T01:25:36.472Z,4.45
2019-04-23T01:28:33.994Z,6.53
2019-04-23T01:31:05.606Z,5.35
2019-04-23T01:33:32.995Z,5.92
2019-04-23T01:36:11.074Z,4.83
2019-04-23T01:38:49.965Z,5.55
2019-04-23T01:40:53.625Z,5.35
2019-04-23T01:43:30.529Z,6.08
2019-04-23T01:46:01.219Z,6.00
2019-04-23T01:48:34.331Z,5.92
2019-04-23T01:51:20.448Z,8.65
2019-04-23T01:53:48.152Z,6.72
2019-04-23T01:56:06.095Z,6.35
2019-04-23T01:58:38.261Z,6.28
2019-04-23T02:03:34.716Z,6.42
2019-04-23T02:08:32.168Z,8.85
2019-04-23T02:11:10.518Z,6.78
2019-04-23T02:13:36.304Z,7.05
2019-04-23T02:15:59.853Z,7.85
2019-04-23T02:18:38.855Z,8.23
2019-04-23T02:21:07.611Z,7.42
2019-04-23T02:23:44.722Z,7.95
2019-04-23T02:28:48.703Z,9.73
2019-04-23T02:34:12.150Z,7.10
2019-04-23T02:36:11.375Z,9.00
2019-04-23T02:43:59.556Z,8.85
2019-04-23T02:46:31.185Z,9.48
2019-04-23T02:48:56.499Z,7.83
2019-04-23T02:51:29.080Z,7.15
2019-04-23T03:06:29.538Z,9.28
2019-04-23T03:08:49.166Z,9.10
2019-04-23T03:19:02.950Z,9.10
2019-04-23T03:21:42.680Z,10.45
2019-04-23T03:24:34.577Z,10.93
2019-04-23T03:37:30.714Z,10.43
2019-04-23T03:39:55.064Z,13.78
2019-04-23T03:44:40.169Z,9.98
2019-04-23T03:47:04.363Z,15.00
2019-04-23T03:52:14.126Z,12.80
2019-04-23T03:54:42.259Z,15.60
2019-04-23T03:57:18.234Z,14.53
2019-04-23T04:04:53.595Z,13.13
2019-04-23T04:07:36.270Z,12.70
2019-04-23T04:12:35.399Z,13.05
2019-04-23T04:15:21.255Z,13.38
2019-04-23T04:17:37.991Z,13.68
2019-04-23T04:20:15.303Z,15.03
2019-04-23T04:23:09.364Z,17.73
2019-04-23T04:25:35.458Z,15.83
2019-04-23T04:27:54.159Z,15.98
2019-04-23T04:30:21.497Z,20.27
2019-04-23T04:32:59.086Z,26.30
2019-04-23T04:43:06.752Z,17.85
2019-04-23T04:47:44.959Z,16.87
2019-04-23T04:50:26.685Z,21.42
2019-04-23T04:55:26.315Z,19.90
2019-04-23T04:58:13.035Z,15.70
2019-04-23T05:00:59.615Z,13.58
2019-04-23T05:10:55.916Z,18.87
2019-04-23T05:15:39.440Z,16.23
2019-04-23T05:20:42.968Z,17.55
2019-04-23T05:23:23.447Z,14.83
2019-04-23T05:25:42.842Z,19.50
2019-04-23T05:28:12.713Z,14.07
2019-04-23T05:30:46.101Z,18.07
2019-04-23T05:40:53.723Z,18.00
2019-04-23T05:43:32.344Z,18.82
2019-04-23T05:45:46.575Z,16.12
2019-04-23T05:48:21.551Z,22.40
2019-04-23T05:50:59.116Z,22.60
2019-04-23T05:53:18.444Z,19.60
2019-04-23T05:55:47.608Z,26.35
2019-04-23T05:58:23.179Z,22.55
2019-04-23T06:00:58.103Z,20.62
2019-04-23T06:03:22.901Z,20.20
2019-04-23T06:05:56.559Z,24.12
2019-04-23T06:08:39.151Z,22.20
2019-04-23T06:10:55.846Z,22.37
2019-04-23T06:13:33.734Z,19.12
2019-04-23T06:15:55.860Z,20.45
2019-04-23T06:18:30.499Z,20.05
2019-04-23T06:23:43.677Z,13.85
2019-04-23T06:26:08.021Z,15.37
2019-04-23T06:28:26.962Z,19.90
2019-04-23T06:31:04.619Z,21.23
2019-04-23T06:33:34.122Z,16.05
2019-04-23T06:36:05.191Z,12.18
2019-04-23T06:38:40.737Z,15.78
2019-04-23T06:41:00.740Z,15.90
2019-04-23T06:43:47.046Z,15.75
2019-04-23T06:46:05.765Z,13.88
2019-04-23T06:48:38.555Z,18.10
2019-04-23T06:51:11.223Z,15.70
2019-04-23T06:53:41.092Z,15.80
2019-04-23T06:56:11.773Z,13.70
2019-04-23T06:58:37.625Z,16.77
2019-04-23T07:01:05.332Z,14.33
2019-04-23T07:03:48.155Z,13.20
2019-04-23T07:13:57.705Z,12.25
2019-04-23T07:18:41.163Z,9.90
2019-04-23T07:26:26.148Z,12.55
2019-04-23T07:28:50.128Z,9.98
2019-04-23T07:31:20.313Z,14.60
2019-04-23T07:33:54.285Z,14.60
2019-04-23T07:36:25.903Z,12.05
2019-04-23T07:41:47.965Z,8.95
2019-04-23T07:44:24.866Z,13.03
2019-04-23T07:47:11.562Z,11.97
2019-04-23T07:49:35.980Z,8.95
2019-04-23T07:52:10.985Z,9.63
2019-04-23T07:54:39.955Z,11.57
2019-04-23T07:57:12.260Z,9.05
2019-04-23T07:59:33.535Z,8.65
2019-04-23T08:02:08.103Z,8.35
2019-04-23T08:04:36.785Z,10.32
2019-04-23T08:07:07.043Z,5.55
2019-04-23T08:09:43.033Z,6.70
2019-04-23T08:12:16.955Z,9.60
2019-04-23T08:14:40.866Z,7.60
2019-04-23T08:17:12.357Z,6.70
2019-04-23T08:19:51.297Z,8.33
2019-04-23T08:22:20.737Z,7.45
2019-04-23T08:25:01.197Z,7.30
2019-04-23T08:27:22.538Z,6.90
2019-04-23T08:29:55.830Z,6.87
2019-04-23T08:32:21.375Z,5.33
2019-04-23T08:35:04.382Z,10.43
2019-04-23T08:37:47.934Z,7.67
2019-04-23T08:40:01.442Z,7.47
2019-04-23T08:42:49.633Z,6.50
2019-04-23T08:45:22.722Z,4.35
2019-04-23T08:53:17.828Z,4.50
2019-04-23T08:55:38.723Z,5.55
2019-04-23T08:58:06.149Z,4.85
2019-04-23T09:00:49.848Z,3.95
2019-04-23T09:05:45.257Z,5.90
2019-04-23T09:08:14.996Z,4.45
2019-04-23T09:13:45.082Z,6.40
2019-04-23T09:18:15.816Z,5.80
2019-04-23T09:20:37.138Z,5.72
2019-04-23T09:23:20.326Z,6.95
2019-04-23T09:25:49.876Z,6.58
2019-04-23T09:28:28.107Z,6.25
2019-04-23T09:36:13.697Z,4.75
2019-04-23T09:39:08.241Z,6.87
2019-04-23T09:41:48.341Z,6.67
2019-04-23T09:45:03.768Z,7.15
2019-04-23T09:47:34.698Z,7.25
2019-04-23T09:50:04.618Z,6.05
2019-04-23T09:52:30.405Z,5.53
2019-04-23T09:55:04.709Z,5.95
2019-04-23T09:57:36.073Z,4.50
2019-04-23T10:00:02.149Z,4.78
2019-04-23T10:02:22.244Z,6.62
2019-04-23T10:04:50.557Z,6.92
2019-04-23T10:07:16.445Z,4.83
2019-04-23T10:09:36.336Z,6.40
2019-04-23T10:12:07.163Z,8.18
2019-04-23T10:14:36.722Z,4.58
2019-04-23T10:17:06.415Z,6.92
2019-04-23T10:19:35.163Z,5.75
2019-04-23T10:22:05.057Z,5.78
2019-04-23T10:24:35.065Z,4.80
2019-04-23T10:27:04.332Z,1.40
2019-04-23T10:29:36.233Z,6.03
2019-04-23T10:32:05.348Z,5.08
2019-04-23T10:34:47.526Z,5.50
2019-04-23T10:37:05.276Z,3.62
2019-04-23T10:39:37.801Z,4.47
2019-04-23T10:42:05.858Z,3.00
2019-04-23T10:44:40.757Z,4.53
2019-04-23T10:47:59.181Z,5.50
2019-04-23T10:50:40.631Z,5.42
2019-04-23T10:53:10.204Z,11.40
2019-04-23T10:55:44.849Z,4.85
2019-04-23T10:58:12.627Z,4.85
2019-04-23T11:00:40.583Z,9.00
2019-04-23T11:03:23.318Z,4.53
2019-04-23T11:08:11.651Z,5.45
2019-04-23T11:10:34.386Z,5.85
2019-04-23T11:13:19.426Z,9.10
2019-04-23T11:18:02.830Z,6.15
2019-04-23T11:20:56.408Z,5.00
2019-04-23T11:23:05.047Z,6.10
2019-04-23T11:25:45.118Z,6.65
2019-04-23T11:30:57.277Z,10.05
2019-04-23T11:33:33.345Z,4.85
2019-04-23T11:36:19.891Z,7.85
2019-04-23T11:41:00.428Z,6.67
2019-04-23T11:43:32.570Z,6.22
2019-04-23T11:46:10.544Z,6.12
2019-04-23T11:51:41.116Z,8.75
2019-04-23T11:53:41.939Z,7.50
2019-04-23T11:56:02.660Z,5.45
2019-04-23T11:58:39.239Z,5.70
2019-04-23T12:01:38.708Z,6.10
2019-04-23T12:04:07.371Z,9.23
2019-04-23T12:06:36.712Z,4.17
2019-04-23T12:09:07.530Z,6.78
2019-04-23T12:11:53.452Z,5.25
2019-04-23T12:14:31.036Z,7.62
2019-04-23T12:17:02.087Z,4.45
2019-04-23T12:22:02.851Z,5.58
2019-04-23T12:24:42.137Z,6.50
2019-04-23T12:29:33.896Z,10.23
2019-04-23T12:32:23.827Z,9.30
2019-04-23T12:34:58.726Z,7.65
2019-04-23T12:37:21.489Z,11.03
2019-04-23T12:39:49.423Z,5.97
2019-04-23T12:42:45.220Z,8.00
2019-04-23T12:44:56.473Z,8.13
2019-04-23T12:47:40.169Z,7.75
2019-04-23T12:50:15.033Z,8.33
2019-04-23T12:52:26.270Z,7.42
2019-04-23T12:59:49.775Z,6.70
2019-04-23T13:02:32.678Z,4.95
2019-04-23T13:04:51.749Z,4.72
2019-04-23T13:07:29.267Z,6.70
2019-04-23T13:12:36.221Z,7.97
2019-04-23T13:14:56.027Z,8.05
2019-04-23T13:22:30.803Z,9.93
2019-04-23T13:25:02.332Z,7.95
2019-04-23T13:27:41.620Z,7.67
2019-04-23T13:32:44.565Z,5.47
2019-04-23T13:37:54.472Z,7.22
2019-04-23T13:40:00.089Z,8.70
2019-04-23T13:42:40.721Z,7.70
2019-04-23T13:45:31.011Z,7.08
2019-04-23T13:47:50.767Z,10.48
2019-04-23T13:50:17.406Z,8.68
2019-04-23T13:58:02.669Z,6.85
2019-04-23T14:00:10.821Z,7.90
2019-04-23T14:02:44.209Z,6.35
2019-04-23T14:05:26.861Z,6.25
2019-04-23T14:08:06.394Z,9.30
2019-04-23T14:10:35.980Z,11.30
2019-04-23T14:18:22.675Z,18.25
2019-04-23T14:20:29.889Z,13.55
2019-04-23T14:23:09.467Z,12.20
2019-04-23T14:25:28.162Z,9.85
2019-04-23T14:28:13.979Z,8.80
2019-04-23T14:30:38.568Z,13.00
2019-04-23T14:33:11.946Z,13.55
2019-04-23T14:35:45.236Z,10.95
2019-04-23T14:38:15.785Z,9.78
2019-04-23T14:40:54.132Z,11.90
2019-04-23T14:46:28.362Z,6.10
2019-04-23T14:48:39.141Z,9.60
2019-04-23T14:50:56.897Z,8.63
2019-04-23T14:53:27.215Z,9.68
2019-04-23T14:56:13.193Z,10.68
2019-04-23T15:01:22.003Z,16.20
2019-04-23T15:03:44.947Z,12.60
2019-04-23T15:08:57.507Z,10.50
2019-04-23T15:11:21.423Z,9.85
2019-04-23T15:18:52.962Z,11.83
2019-04-23T15:21:41.130Z,11.78
2019-04-23T15:23:59.515Z,9.83
2019-04-23T15:27:22.733Z,7.92
2019-04-23T15:28:29.107Z,9.93
2019-04-23T15:34:02.202Z,8.65
2019-04-23T15:36:36.877Z,16.37
2019-04-23T15:41:30.727Z,11.28
2019-04-23T15:44:02.007Z,9.33
2019-04-23T15:46:25.367Z,7.55
2019-04-23T15:49:02.162Z,13.08
2019-04-23T15:51:30.110Z,12.95
2019-04-23T15:54:00.769Z,10.23
2019-04-23T16:03:29.966Z,11.93
2019-04-23T16:05:59.373Z,9.33
2019-04-23T16:09:05.462Z,12.37
2019-04-23T16:14:17.679Z,12.98
2019-04-23T16:19:22.031Z,15.20
2019-04-23T16:21:58.647Z,12.78
2019-04-23T16:24:17.604Z,15.40
2019-04-23T16:26:55.751Z,14.20
2019-04-23T16:29:44.463Z,12.70
2019-04-23T16:31:52.122Z,14.15
2019-04-23T16:34:34.239Z,16.25
2019-04-23T16:37:08.470Z,14.10
2019-04-23T16:39:30.775Z,22.55
2019-04-23T16:42:10.125Z,18.87
2019-04-23T16:44:48.325Z,15.15
2019-04-23T16:47:12.629Z,17.85
2019-04-23T16:49:42.334Z,16.73
2019-04-23T16:52:10.625Z,13.03
2019-04-23T16:54:40.220Z,17.77
2019-04-23T16:57:22.766Z,15.72
2019-04-23T16:59:48.703Z,13.95
2019-04-23T17:04:49.732Z,15.83
2019-04-23T17:07:08.427Z,17.95
2019-04-23T17:12:15.018Z,15.48
2019-04-23T17:14:44.328Z,17.50
2019-04-23T17:17:06.535Z,21.97
2019-04-23T17:19:48.008Z,12.18
2019-04-23T17:22:09.611Z,15.45
2019-04-23T17:24:41.553Z,17.30
2019-04-23T17:27:16.429Z,14.95
2019-04-23T17:32:15.158Z,17.90
2019-04-23T17:37:31.366Z,12.28
2019-04-23T17:40:08.527Z,17.87
2019-04-23T17:42:37.629Z,17.07
2019-04-23T17:45:30.968Z,16.07
2019-04-23T17:47:51.730Z,17.62
2019-04-23T17:50:20.052Z,18.67
2019-04-23T17:52:51.070Z,16.27
2019-04-23T17:55:17.702Z,18.12
2019-04-23T18:00:25.449Z,17.07
2019-04-23T18:03:02.768Z,22.32
2019-04-23T18:05:37.116Z,16.95
2019-04-23T18:12:53.666Z,17.10
2019-04-23T18:15:15.992Z,20.27
2019-04-23T18:20:22.430Z,20.55
2019-04-23T18:23:00.503Z,17.25
2019-04-23T18:25:30.804Z,18.00
2019-04-23T18:27:54.409Z,19.98
2019-04-23T18:30:50.504Z,19.12
2019-04-23T18:33:45.081Z,24.43
2019-04-23T18:35:43.921Z,20.30
2019-04-23T18:40:54.626Z,19.45
2019-04-23T18:43:15.279Z,21.42
2019-04-23T18:45:45.113Z,23.50
2019-04-23T18:58:54.661Z,17.77
2019-04-23T19:01:11.291Z,17.07
2019-04-23T19:04:00.384Z,15.95
2019-04-23T19:09:13.976Z,18.12
2019-04-23T19:19:29.046Z,16.82
2019-04-23T19:22:13.699Z,18.57
2019-04-23T19:24:28.652Z,17.20
2019-04-23T19:27:10.612Z,14.18
2019-04-23T19:29:39.437Z,18.45
2019-04-23T19:31:58.324Z,17.32
2019-04-23T19:34:35.706Z,17.77
2019-04-23T19:37:02.618Z,18.10
2019-04-23T19:39:29.589Z,17.87
2019-04-23T19:47:12.483Z,14.93
2019-04-23T19:52:04.825Z,17.45
2019-04-23T19:57:05.266Z,21.52
2019-04-23T19:59:45.029Z,17.95
2019-04-23T20:02:09.563Z,18.62
2019-04-23T20:12:09.474Z,17.30
2019-04-23T20:14:44.223Z,18.17
2019-04-23T20:22:17.118Z,17.45
2019-04-23T20:27:11.476Z,16.73
2019-04-23T20:30:02.856Z,20.10
2019-04-23T20:33:19.186Z,19.80
2019-04-23T20:35:00.265Z,16.60
2019-04-23T20:37:42.830Z,17.45
2019-04-23T20:42:39.095Z,17.07
2019-04-23T20:44:59.067Z,18.12
2019-04-23T20:47:24.456Z,13.83
2019-04-23T20:49:47.893Z,15.40
2019-04-23T20:52:20.361Z,14.63
2019-04-23T21:05:21.308Z,13.38
2019-04-23T21:13:08.729Z,17.42
2019-04-23T21:15:28.320Z,18.02
2019-04-23T21:18:08.298Z,15.85
2019-04-23T21:20:34.046Z,19.90
2019-04-23T21:23:06.277Z,16.10
2019-04-23T21:25:32.387Z,17.12
2019-04-23T21:28:14.234Z,17.12
2019-04-23T21:33:15.935Z,21.65
2019-04-23T21:41:31.415Z,18.32
2019-04-23T21:46:27.780Z,15.18
2019-04-23T21:49:09.089Z,16.10
2019-04-23T21:51:41.957Z,14.43
2019-04-23T21:56:31.376Z,13.30
2019-04-23T22:06:40.851Z,10.85
2019-04-23T22:11:48.278Z,9.48
2019-04-23T22:16:35.643Z,10.43
2019-04-23T22:19:10.994Z,9.90
2019-04-23T22:24:07.183Z,10.30
2019-04-23T22:26:33.843Z,10.35
2019-04-23T22:31:44.293Z,13.38
2019-04-23T22:34:09.260Z,12.40
2019-04-23T22:36:43.160Z,13.98
2019-04-23T22:39:09.739Z,11.12
2019-04-23T22:41:43.722Z,11.85
2019-04-23T22:44:10.847Z,15.88
2019-04-23T22:46:57.521Z,12.75
2019-04-23T22:49:23.228Z,10.95
2019-04-23T22:51:52.728Z,13.03
2019-04-23T22:54:11.722Z,12.05
2019-04-23T22:56:46.847Z,11.35
2019-04-23T22:59:21.268Z,11.95
2019-04-23T23:01:51.295Z,11.97
2019-04-23T23:04:35.465Z,12.05
2019-04-23T23:06:55.526Z,12.58
2019-04-23T23:14:27.785Z,12.23
2019-04-23T23:22:00.183Z,12.88
2019-04-23T23:24:13.690Z,13.40
2019-04-23T23:26:54.516Z,14.55
2019-04-23T23:29:19.223Z,12.82
2019-04-23T23:34:29.791Z,12.90
2019-04-23T23:36:59.048Z,13.03
2019-04-23T23:39:22.784Z,14.18
2019-04-23T23:41:58.921Z,14.60
2019-04-23T23:46:56.312Z,13.38
2019-04-23T23:51:54.341Z,13.88
2019-04-23T23:59:24.665Z,11.97
